sensor_id;sensor_type;location;lat;lon;timestamp;P1;durP1;ratioP1;P2;durP2;ratioP2
1328;SDS011;658;48.820;9.354;2023-04-03T00:02:35;2.10;;;1.77;;
1328;SDS011;658;48.820;9.354;2023-04-03T00:06:36;2.10;;;1.87;;
1328;SDS011;658;48.820;9.354;2023-04-03T00:10:37;2.10;;;1.90;;
1328;SDS011;658;48.820;9.354;2023-04-03T00:14:38;2.07;;;1.87;;
1328;SDS011;658;48.820;9.354;2023-04-03T00:18:41;2.33;;;2.13;;
1328;SDS011;658;48.820;9.354;2023-04-03T00:22:42;1.77;;;1.67;;
1328;SDS011;658;48.820;9.354;2023-04-03T00:26:45;1.97;;;1.80;;
1328;SDS011;658;48.820;9.354;2023-04-03T00:30:48;2.20;;;2.00;;
1328;SDS011;658;48.820;9.354;2023-04-03T00:34:50;2.47;;;2.27;;
1328;SDS011;658;48.820;9.354;2023-04-03T00:38:50;2.00;;;1.90;;
1328;SDS011;658;48.820;9.354;2023-04-03T00:42:54;2.00;;;1.80;;
1328;SDS011;658;48.820;9.354;2023-04-03T00:46:59;1.77;;;1.67;;
1328;SDS011;658;48.820;9.354;2023-04-03T00:51:02;1.97;;;1.87;;
1328;SDS011;658;48.820;9.354;2023-04-03T00:55:06;3.70;;;2.00;;
1328;SDS011;658;48.820;9.354;2023-04-03T00:59:16;1.60;;;1.50;;
1328;SDS011;658;48.820;9.354;2023-04-03T01:03:26;1.90;;;1.80;;
1328;SDS011;658;48.820;9.354;2023-04-03T01:07:28;2.43;;;1.70;;
1328;SDS011;658;48.820;9.354;2023-04-03T01:11:30;1.77;;;1.67;;
1328;SDS011;658;48.820;9.354;2023-04-03T01:15:31;2.23;;;2.03;;
1328;SDS011;658;48.820;9.354;2023-04-03T01:19:34;2.00;;;1.67;;
1328;SDS011;658;48.820;9.354;2023-04-03T01:23:57;1.70;;;1.50;;
1328;SDS011;658;48.820;9.354;2023-04-03T01:28:02;1.57;;;1.47;;
1328;SDS011;658;48.820;9.354;2023-04-03T01:32:03;1.10;;;1.00;;
1328;SDS011;658;48.820;9.354;2023-04-03T01:36:04;2.33;;;1.80;;
1328;SDS011;658;48.820;9.354;2023-04-03T01:40:06;1.60;;;1.50;;
1328;SDS011;658;48.820;9.354;2023-04-03T01:44:08;1.70;;;1.60;;
1328;SDS011;658;48.820;9.354;2023-04-03T01:48:10;2.20;;;2.00;;
1328;SDS011;658;48.820;9.354;2023-04-03T01:52:11;1.40;;;1.30;;
1328;SDS011;658;48.820;9.354;2023-04-03T01:56:19;1.40;;;1.30;;
1328;SDS011;658;48.820;9.354;2023-04-03T02:00:20;1.47;;;1.37;;
1328;SDS011;658;48.820;9.354;2023-04-03T02:04:21;1.50;;;1.40;;
1328;SDS011;658;48.820;9.354;2023-04-03T02:08:21;1.70;;;1.60;;
1328;SDS011;658;48.820;9.354;2023-04-03T02:12:22;1.53;;;1.43;;
1328;SDS011;658;48.820;9.354;2023-04-03T02:16:22;1.57;;;1.47;;
1328;SDS011;658;48.820;9.354;2023-04-03T02:20:23;2.43;;;1.50;;
1328;SDS011;658;48.820;9.354;2023-04-03T02:24:24;1.60;;;1.50;;
1328;SDS011;658;48.820;9.354;2023-04-03T02:28:26;1.60;;;1.50;;
1328;SDS011;658;48.820;9.354;2023-04-03T02:32:29;1.40;;;1.30;;
1328;SDS011;658;48.820;9.354;2023-04-03T02:36:30;1.57;;;1.30;;
1328;SDS011;658;48.820;9.354;2023-04-03T02:40:30;1.40;;;1.30;;
1328;SDS011;658;48.820;9.354;2023-04-03T02:44:31;1.60;;;1.50;;
1328;SDS011;658;48.820;9.354;2023-04-03T02:48:31;1.50;;;1.40;;
1328;SDS011;658;48.820;9.354;2023-04-03T02:52:32;1.30;;;1.20;;
1328;SDS011;658;48.820;9.354;2023-04-03T02:56:33;1.20;;;1.10;;
1328;SDS011;658;48.820;9.354;2023-04-03T03:00:34;1.50;;;1.40;;
1328;SDS011;658;48.820;9.354;2023-04-03T03:04:35;1.13;;;1.10;;
1328;SDS011;658;48.820;9.354;2023-04-03T03:08:35;1.47;;;1.37;;
1328;SDS011;658;48.820;9.354;2023-04-03T03:12:36;1.40;;;1.30;;
1328;SDS011;658;48.820;9.354;2023-04-03T03:16:37;2.93;;;1.50;;
1328;SDS011;658;48.820;9.354;2023-04-03T03:20:37;1.27;;;1.17;;
1328;SDS011;658;48.820;9.354;2023-04-03T03:24:38;1.10;;;1.00;;
1328;SDS011;658;48.820;9.354;2023-04-03T03:28:39;1.30;;;1.20;;
1328;SDS011;658;48.820;9.354;2023-04-03T03:32:41;1.33;;;1.23;;
1328;SDS011;658;48.820;9.354;2023-04-03T03:36:42;1.40;;;1.30;;
1328;SDS011;658;48.820;9.354;2023-04-03T03:40:43;1.20;;;1.17;;
1328;SDS011;658;48.820;9.354;2023-04-03T03:44:43;1.30;;;1.20;;
1328;SDS011;658;48.820;9.354;2023-04-03T03:48:48;1.10;;;1.03;;
1328;SDS011;658;48.820;9.354;2023-04-03T03:52:51;1.10;;;1.10;;
1328;SDS011;658;48.820;9.354;2023-04-03T03:56:54;0.90;;;0.90;;
1328;SDS011;658;48.820;9.354;2023-04-03T04:00:55;1.33;;;1.23;;
1328;SDS011;658;48.820;9.354;2023-04-03T04:04:55;0.83;;;0.83;;
1328;SDS011;658;48.820;9.354;2023-04-03T04:08:56;1.23;;;1.13;;
1328;SDS011;658;48.820;9.354;2023-04-03T04:12:56;1.40;;;1.30;;
1328;SDS011;658;48.820;9.354;2023-04-03T04:16:57;1.13;;;1.00;;
1328;SDS011;658;48.820;9.354;2023-04-03T04:20:58;1.17;;;1.07;;
1328;SDS011;658;48.820;9.354;2023-04-03T04:24:58;1.30;;;1.20;;
1328;SDS011;658;48.820;9.354;2023-04-03T04:28:59;1.17;;;1.17;;
1328;SDS011;658;48.820;9.354;2023-04-03T04:33:02;0.97;;;0.97;;
1328;SDS011;658;48.820;9.354;2023-04-03T04:37:03;1.23;;;1.13;;
1328;SDS011;658;48.820;9.354;2023-04-03T04:41:03;1.47;;;1.37;;
1328;SDS011;658;48.820;9.354;2023-04-03T04:45:04;0.77;;;0.77;;
1328;SDS011;658;48.820;9.354;2023-04-03T04:49:05;1.10;;;1.10;;
1328;SDS011;658;48.820;9.354;2023-04-03T04:53:06;1.27;;;1.20;;
1328;SDS011;658;48.820;9.354;2023-04-03T04:57:07;1.33;;;1.13;;
1328;SDS011;658;48.820;9.354;2023-04-03T05:01:08;1.40;;;1.30;;
1328;SDS011;658;48.820;9.354;2023-04-03T05:05:10;1.30;;;1.20;;
1328;SDS011;658;48.820;9.354;2023-04-03T05:09:11;0.90;;;0.90;;
1328;SDS011;658;48.820;9.354;2023-04-03T05:13:12;0.83;;;0.83;;
1328;SDS011;658;48.820;9.354;2023-04-03T05:17:13;1.10;;;1.00;;
1328;SDS011;658;48.820;9.354;2023-04-03T05:21:14;0.97;;;0.97;;
1328;SDS011;658;48.820;9.354;2023-04-03T05:25:18;0.83;;;0.83;;
1328;SDS011;658;48.820;9.354;2023-04-03T05:29:18;1.27;;;1.07;;
1328;SDS011;658;48.820;9.354;2023-04-03T05:33:19;1.20;;;1.10;;
1328;SDS011;658;48.820;9.354;2023-04-03T05:37:19;1.40;;;1.30;;
1328;SDS011;658;48.820;9.354;2023-04-03T05:41:20;1.50;;;1.20;;
1328;SDS011;658;48.820;9.354;2023-04-03T05:45:21;1.23;;;1.03;;
1328;SDS011;658;48.820;9.354;2023-04-03T05:49:22;1.73;;;1.27;;
1328;SDS011;658;48.820;9.354;2023-04-03T05:53:24;1.50;;;1.10;;
1328;SDS011;658;48.820;9.354;2023-04-03T05:57:30;1.70;;;0.90;;
1328;SDS011;658;48.820;9.354;2023-04-03T06:01:31;3.83;;;1.40;;
1328;SDS011;658;48.820;9.354;2023-04-03T06:05:31;2.90;;;1.77;;
1328;SDS011;658;48.820;9.354;2023-04-03T06:09:32;2.10;;;1.47;;
1328;SDS011;658;48.820;9.354;2023-04-03T06:13:33;1.30;;;1.20;;
1328;SDS011;658;48.820;9.354;2023-04-03T06:17:35;2.30;;;1.30;;
1328;SDS011;658;48.820;9.354;2023-04-03T06:21:37;1.40;;;1.30;;
1328;SDS011;658;48.820;9.354;2023-04-03T06:25:38;2.07;;;1.40;;
1328;SDS011;658;48.820;9.354;2023-04-03T06:29:39;2.20;;;1.20;;
1328;SDS011;658;48.820;9.354;2023-04-03T06:33:40;5.00;;;1.53;;
1328;SDS011;658;48.820;9.354;2023-04-03T06:37:41;1.97;;;1.30;;
1328;SDS011;658;48.820;9.354;2023-04-03T06:41:43;2.43;;;1.20;;
1328;SDS011;658;48.820;9.354;2023-04-03T06:45:44;1.10;;;1.00;;
1328;SDS011;658;48.820;9.354;2023-04-03T06:49:45;2.57;;;0.80;;
1328;SDS011;658;48.820;9.354;2023-04-03T06:53:46;1.20;;;1.10;;
1328;SDS011;658;48.820;9.354;2023-04-03T06:57:47;0.80;;;0.80;;
1328;SDS011;658;48.820;9.354;2023-04-03T07:01:48;3.30;;;1.07;;
1328;SDS011;658;48.820;9.354;2023-04-03T07:05:49;1.60;;;1.20;;
1328;SDS011;658;48.820;9.354;2023-04-03T07:09:50;1.23;;;0.90;;
1328;SDS011;658;48.820;9.354;2023-04-03T07:13:50;1.27;;;1.17;;
1328;SDS011;658;48.820;9.354;2023-04-03T07:17:51;0.90;;;0.87;;
1328;SDS011;658;48.820;9.354;2023-04-03T07:21:55;0.90;;;0.90;;
1328;SDS011;658;48.820;9.354;2023-04-03T07:25:56;1.10;;;0.90;;
1328;SDS011;658;48.820;9.354;2023-04-03T07:29:56;1.13;;;0.90;;
1328;SDS011;658;48.820;9.354;2023-04-03T07:33:57;0.70;;;0.70;;
1328;SDS011;658;48.820;9.354;2023-04-03T07:37:57;1.23;;;1.13;;
1328;SDS011;658;48.820;9.354;2023-04-03T07:41:58;1.60;;;1.07;;
1328;SDS011;658;48.820;9.354;2023-04-03T07:45:59;0.97;;;0.80;;
1328;SDS011;658;48.820;9.354;2023-04-03T07:50:00;1.20;;;1.03;;
1328;SDS011;658;48.820;9.354;2023-04-03T07:54:01;1.20;;;1.10;;
1328;SDS011;658;48.820;9.354;2023-04-03T07:58:01;0.80;;;0.80;;
1328;SDS011;658;48.820;9.354;2023-04-03T08:02:02;1.30;;;0.83;;
1328;SDS011;658;48.820;9.354;2023-04-03T08:06:06;1.50;;;0.87;;
1328;SDS011;658;48.820;9.354;2023-04-03T08:10:10;0.80;;;0.80;;
1328;SDS011;658;48.820;9.354;2023-04-03T08:14:11;0.93;;;0.93;;
1328;SDS011;658;48.820;9.354;2023-04-03T08:18:16;0.80;;;0.80;;
1328;SDS011;658;48.820;9.354;2023-04-03T08:22:18;0.77;;;0.77;;
1328;SDS011;658;48.820;9.354;2023-04-03T08:26:20;0.80;;;0.80;;
1328;SDS011;658;48.820;9.354;2023-04-03T08:30:21;1.00;;;0.90;;
1328;SDS011;658;48.820;9.354;2023-04-03T08:34:22;0.77;;;0.77;;
1328;SDS011;658;48.820;9.354;2023-04-03T08:38:22;1.90;;;0.90;;
1328;SDS011;658;48.820;9.354;2023-04-03T08:42:45;1.00;;;0.90;;
1328;SDS011;658;48.820;9.354;2023-04-03T08:51:17;0.90;;;0.90;;
1328;SDS011;658;48.820;9.354;2023-04-03T08:55:24;1.00;;;1.00;;
1328;SDS011;658;48.820;9.354;2023-04-03T08:59:29;1.30;;;1.20;;
1328;SDS011;658;48.820;9.354;2023-04-03T09:03:35;1.17;;;1.07;;
1328;SDS011;658;48.820;9.354;2023-04-03T09:07:42;0.73;;;0.70;;
1328;SDS011;658;48.820;9.354;2023-04-03T09:15:55;0.80;;;0.80;;
1328;SDS011;658;48.820;9.354;2023-04-03T09:20:10;0.87;;;0.87;;
1328;SDS011;658;48.820;9.354;2023-04-03T09:24:19;1.07;;;1.00;;
1328;SDS011;658;48.820;9.354;2023-04-03T09:28:31;0.90;;;0.90;;
1328;SDS011;658;48.820;9.354;2023-04-03T09:32:35;0.90;;;0.90;;
1328;SDS011;658;48.820;9.354;2023-04-03T09:36:45;0.90;;;0.90;;
1328;SDS011;658;48.820;9.354;2023-04-03T09:41:05;0.93;;;0.73;;
1328;SDS011;658;48.820;9.354;2023-04-03T09:45:18;0.90;;;0.90;;
1328;SDS011;658;48.820;9.354;2023-04-03T09:49:24;2.00;;;0.90;;
1328;SDS011;658;48.820;9.354;2023-04-03T09:53:27;0.93;;;0.80;;
1328;SDS011;658;48.820;9.354;2023-04-03T09:57:39;0.80;;;0.80;;
1328;SDS011;658;48.820;9.354;2023-04-03T10:01:41;0.70;;;0.70;;
1328;SDS011;658;48.820;9.354;2023-04-03T10:05:44;1.27;;;1.17;;
1328;SDS011;658;48.820;9.354;2023-04-03T10:09:47;0.87;;;0.73;;
1328;SDS011;658;48.820;9.354;2023-04-03T10:13:59;1.17;;;0.90;;
1328;SDS011;658;48.820;9.354;2023-04-03T10:18:05;0.67;;;0.67;;
1328;SDS011;658;48.820;9.354;2023-04-03T10:22:34;0.93;;;0.90;;
1328;SDS011;658;48.820;9.354;2023-04-03T10:31:03;0.80;;;0.80;;
1328;SDS011;658;48.820;9.354;2023-04-03T10:48:40;1.23;;;1.13;;
1328;SDS011;658;48.820;9.354;2023-04-03T10:52:50;0.60;;;0.60;;
1328;SDS011;658;48.820;9.354;2023-04-03T10:57:12;1.00;;;0.90;;
1328;SDS011;658;48.820;9.354;2023-04-03T11:01:14;0.77;;;0.77;;
1328;SDS011;658;48.820;9.354;2023-04-03T11:05:29;1.07;;;0.93;;
1328;SDS011;658;48.820;9.354;2023-04-03T11:09:46;0.70;;;0.70;;
1328;SDS011;658;48.820;9.354;2023-04-03T11:18:09;1.23;;;0.80;;
1328;SDS011;658;48.820;9.354;2023-04-03T11:22:25;0.60;;;0.60;;
1328;SDS011;658;48.820;9.354;2023-04-03T11:26:38;0.60;;;0.60;;
1328;SDS011;658;48.820;9.354;2023-04-03T11:34:55;0.83;;;0.60;;
1328;SDS011;658;48.820;9.354;2023-04-03T11:39:01;0.90;;;0.80;;
1328;SDS011;658;48.820;9.354;2023-04-03T11:43:42;0.80;;;0.70;;
1328;SDS011;658;48.820;9.354;2023-04-03T11:48:06;0.70;;;0.70;;
1328;SDS011;658;48.820;9.354;2023-04-03T11:56:38;1.53;;;0.83;;
1328;SDS011;658;48.820;9.354;2023-04-03T12:09:32;0.77;;;0.77;;
1328;SDS011;658;48.820;9.354;2023-04-03T12:13:36;1.27;;;0.80;;
1328;SDS011;658;48.820;9.354;2023-04-03T12:17:41;1.00;;;0.80;;
1328;SDS011;658;48.820;9.354;2023-04-03T12:25:51;0.60;;;0.60;;
1328;SDS011;658;48.820;9.354;2023-04-03T12:39:37;0.90;;;0.80;;
1328;SDS011;658;48.820;9.354;2023-04-03T12:44:00;0.60;;;0.60;;
1328;SDS011;658;48.820;9.354;2023-04-03T12:48:20;0.80;;;0.80;;
1328;SDS011;658;48.820;9.354;2023-04-03T12:56:32;0.80;;;0.80;;
1328;SDS011;658;48.820;9.354;2023-04-03T13:00:34;0.80;;;0.80;;
1328;SDS011;658;48.820;9.354;2023-04-03T13:04:38;0.87;;;0.70;;
1328;SDS011;658;48.820;9.354;2023-04-03T13:08:47;0.60;;;0.60;;
1328;SDS011;658;48.820;9.354;2023-04-03T13:12:50;1.20;;;0.80;;
1328;SDS011;658;48.820;9.354;2023-04-03T13:17:00;0.80;;;0.80;;
1328;SDS011;658;48.820;9.354;2023-04-03T13:25:41;0.93;;;0.83;;
1328;SDS011;658;48.820;9.354;2023-04-03T13:29:48;2.03;;;0.70;;
1328;SDS011;658;48.820;9.354;2023-04-03T13:34:03;0.77;;;0.77;;
1328;SDS011;658;48.820;9.354;2023-04-03T13:42:22;0.80;;;0.80;;
1328;SDS011;658;48.820;9.354;2023-04-03T13:46:29;0.90;;;0.90;;
1328;SDS011;658;48.820;9.354;2023-04-03T13:50:31;0.70;;;0.70;;
1328;SDS011;658;48.820;9.354;2023-04-03T13:54:36;1.00;;;0.70;;
1328;SDS011;658;48.820;9.354;2023-04-03T13:58:38;0.90;;;0.90;;
1328;SDS011;658;48.820;9.354;2023-04-03T14:02:40;0.80;;;0.80;;
1328;SDS011;658;48.820;9.354;2023-04-03T14:06:40;0.80;;;0.80;;
1328;SDS011;658;48.820;9.354;2023-04-03T14:10:41;0.80;;;0.80;;
1328;SDS011;658;48.820;9.354;2023-04-03T14:14:42;1.17;;;1.07;;
1328;SDS011;658;48.820;9.354;2023-04-03T14:18:44;0.80;;;0.80;;
1328;SDS011;658;48.820;9.354;2023-04-03T14:22:45;1.30;;;0.90;;
1328;SDS011;658;48.820;9.354;2023-04-03T14:26:46;0.97;;;0.97;;
1328;SDS011;658;48.820;9.354;2023-04-03T14:30:50;0.77;;;0.77;;
1328;SDS011;658;48.820;9.354;2023-04-03T14:34:51;1.10;;;1.07;;
1328;SDS011;658;48.820;9.354;2023-04-03T14:38:53;1.10;;;1.00;;
1328;SDS011;658;48.820;9.354;2023-04-03T14:42:54;0.70;;;0.60;;
1328;SDS011;658;48.820;9.354;2023-04-03T14:46:57;0.80;;;0.80;;
1328;SDS011;658;48.820;9.354;2023-04-03T14:50:57;1.17;;;1.07;;
1328;SDS011;658;48.820;9.354;2023-04-03T14:55:00;0.80;;;0.80;;
1328;SDS011;658;48.820;9.354;2023-04-03T14:59:08;0.90;;;0.90;;
1328;SDS011;658;48.820;9.354;2023-04-03T15:03:18;0.97;;;0.93;;
1328;SDS011;658;48.820;9.354;2023-04-03T15:07:22;0.80;;;0.80;;
1328;SDS011;658;48.820;9.354;2023-04-03T15:11:26;0.70;;;0.70;;
1328;SDS011;658;48.820;9.354;2023-04-03T15:15:28;1.00;;;0.70;;
1328;SDS011;658;48.820;9.354;2023-04-03T15:19:31;1.30;;;1.30;;
1328;SDS011;658;48.820;9.354;2023-04-03T15:23:37;0.70;;;0.70;;
1328;SDS011;658;48.820;9.354;2023-04-03T15:27:37;1.30;;;0.80;;
1328;SDS011;658;48.820;9.354;2023-04-03T15:31:40;1.00;;;0.97;;
1328;SDS011;658;48.820;9.354;2023-04-03T15:35:43;0.80;;;0.80;;
1328;SDS011;658;48.820;9.354;2023-04-03T15:39:43;0.93;;;0.93;;
1328;SDS011;658;48.820;9.354;2023-04-03T15:43:44;1.03;;;1.00;;
1328;SDS011;658;48.820;9.354;2023-04-03T15:47:45;1.90;;;0.80;;
1328;SDS011;658;48.820;9.354;2023-04-03T15:51:45;3.93;;;1.73;;
1328;SDS011;658;48.820;9.354;2023-04-03T15:55:46;2.00;;;0.80;;
1328;SDS011;658;48.820;9.354;2023-04-03T15:59:46;0.80;;;0.80;;
1328;SDS011;658;48.820;9.354;2023-04-03T16:03:47;1.07;;;0.97;;
1328;SDS011;658;48.820;9.354;2023-04-03T16:07:51;1.03;;;0.83;;
1328;SDS011;658;48.820;9.354;2023-04-03T16:11:54;2.00;;;0.93;;
1328;SDS011;658;48.820;9.354;2023-04-03T16:15:56;1.17;;;1.00;;
1328;SDS011;658;48.820;9.354;2023-04-03T16:19:57;1.33;;;0.90;;
1328;SDS011;658;48.820;9.354;2023-04-03T16:23:58;1.00;;;1.00;;
1328;SDS011;658;48.820;9.354;2023-04-03T16:27:59;0.63;;;0.60;;
1328;SDS011;658;48.820;9.354;2023-04-03T16:32:00;0.80;;;0.80;;
1328;SDS011;658;48.820;9.354;2023-04-03T16:36:05;0.90;;;0.90;;
1328;SDS011;658;48.820;9.354;2023-04-03T16:40:06;0.80;;;0.80;;
1328;SDS011;658;48.820;9.354;2023-04-03T16:44:10;1.00;;;0.67;;
1328;SDS011;658;48.820;9.354;2023-04-03T16:48:11;0.80;;;0.60;;
1328;SDS011;658;48.820;9.354;2023-04-03T16:52:11;0.80;;;0.70;;
1328;SDS011;658;48.820;9.354;2023-04-03T16:56:15;0.77;;;0.77;;
1328;SDS011;658;48.820;9.354;2023-04-03T17:00:16;0.80;;;0.80;;
1328;SDS011;658;48.820;9.354;2023-04-03T17:04:16;0.77;;;0.73;;
1328;SDS011;658;48.820;9.354;2023-04-03T17:08:17;1.03;;;0.80;;
1328;SDS011;658;48.820;9.354;2023-04-03T17:12:18;1.00;;;0.80;;
1328;SDS011;658;48.820;9.354;2023-04-03T17:16:19;0.77;;;0.77;;
1328;SDS011;658;48.820;9.354;2023-04-03T17:20:20;2.30;;;0.90;;
1328;SDS011;658;48.820;9.354;2023-04-03T17:24:21;0.90;;;0.90;;
1328;SDS011;658;48.820;9.354;2023-04-03T17:28:22;0.73;;;0.73;;
1328;SDS011;658;48.820;9.354;2023-04-03T17:32:27;0.90;;;0.90;;
1328;SDS011;658;48.820;9.354;2023-04-03T17:36:30;0.90;;;0.80;;
1328;SDS011;658;48.820;9.354;2023-04-03T17:40:32;0.80;;;0.70;;
1328;SDS011;658;48.820;9.354;2023-04-03T17:44:35;1.23;;;0.80;;
1328;SDS011;658;48.820;9.354;2023-04-03T17:48:36;0.70;;;0.70;;
1328;SDS011;658;48.820;9.354;2023-04-03T17:52:39;2.20;;;0.70;;
1328;SDS011;658;48.820;9.354;2023-04-03T17:56:40;0.90;;;0.77;;
1328;SDS011;658;48.820;9.354;2023-04-03T18:00:46;1.53;;;1.20;;
1328;SDS011;658;48.820;9.354;2023-04-03T18:04:49;1.70;;;0.80;;
1328;SDS011;658;48.820;9.354;2023-04-03T18:08:53;1.07;;;0.97;;
1328;SDS011;658;48.820;9.354;2023-04-03T18:12:57;1.00;;;0.60;;
1328;SDS011;658;48.820;9.354;2023-04-03T18:17:00;1.73;;;0.83;;
1328;SDS011;658;48.820;9.354;2023-04-03T18:21:00;0.70;;;0.70;;
1328;SDS011;658;48.820;9.354;2023-04-03T18:25:02;1.27;;;0.90;;
1328;SDS011;658;48.820;9.354;2023-04-03T18:29:03;1.63;;;0.90;;
1328;SDS011;658;48.820;9.354;2023-04-03T18:33:07;2.03;;;0.83;;
1328;SDS011;658;48.820;9.354;2023-04-03T18:37:08;2.60;;;1.40;;
1328;SDS011;658;48.820;9.354;2023-04-03T18:41:09;1.90;;;1.13;;
1328;SDS011;658;48.820;9.354;2023-04-03T18:45:11;3.33;;;1.00;;
1328;SDS011;658;48.820;9.354;2023-04-03T18:49:18;0.90;;;0.90;;
1328;SDS011;658;48.820;9.354;2023-04-03T18:53:20;1.43;;;1.03;;
1328;SDS011;658;48.820;9.354;2023-04-03T18:57:21;1.43;;;1.00;;
1328;SDS011;658;48.820;9.354;2023-04-03T19:01:23;2.77;;;1.23;;
1328;SDS011;658;48.820;9.354;2023-04-03T19:05:35;3.00;;;0.90;;
1328;SDS011;658;48.820;9.354;2023-04-03T19:10:23;3.50;;;0.97;;
1328;SDS011;658;48.820;9.354;2023-04-03T19:14:51;1.60;;;0.70;;
1328;SDS011;658;48.820;9.354;2023-04-03T19:18:52;2.23;;;1.10;;
1328;SDS011;658;48.820;9.354;2023-04-03T19:22:57;1.97;;;0.83;;
1328;SDS011;658;48.820;9.354;2023-04-03T19:27:00;1.93;;;1.10;;
1328;SDS011;658;48.820;9.354;2023-04-03T19:31:43;1.80;;;0.90;;
1328;SDS011;658;48.820;9.354;2023-04-03T19:40:45;2.30;;;1.20;;
1328;SDS011;658;48.820;9.354;2023-04-03T19:44:46;1.27;;;1.07;;
1328;SDS011;658;48.820;9.354;2023-04-03T19:48:48;1.23;;;1.10;;
1328;SDS011;658;48.820;9.354;2023-04-03T19:52:50;1.13;;;0.77;;
1328;SDS011;658;48.820;9.354;2023-04-03T19:56:53;3.37;;;1.50;;
1328;SDS011;658;48.820;9.354;2023-04-03T20:00:54;1.10;;;1.03;;
1328;SDS011;658;48.820;9.354;2023-04-03T20:04:56;2.70;;;1.10;;
1328;SDS011;658;48.820;9.354;2023-04-03T20:08:56;1.13;;;1.00;;
1328;SDS011;658;48.820;9.354;2023-04-03T20:12:58;1.50;;;1.00;;
1328;SDS011;658;48.820;9.354;2023-04-03T20:16:58;1.97;;;0.90;;
1328;SDS011;658;48.820;9.354;2023-04-03T20:21:02;1.30;;;0.90;;
1328;SDS011;658;48.820;9.354;2023-04-03T20:25:10;2.10;;;1.10;;
1328;SDS011;658;48.820;9.354;2023-04-03T20:29:12;1.60;;;0.90;;
1328;SDS011;658;48.820;9.354;2023-04-03T20:33:13;3.20;;;1.00;;
1328;SDS011;658;48.820;9.354;2023-04-03T20:37:14;3.00;;;0.90;;
1328;SDS011;658;48.820;9.354;2023-04-03T20:41:20;1.37;;;1.00;;
1328;SDS011;658;48.820;9.354;2023-04-03T20:45:20;1.80;;;1.00;;
1328;SDS011;658;48.820;9.354;2023-04-03T20:49:22;1.23;;;1.10;;
1328;SDS011;658;48.820;9.354;2023-04-03T20:53:26;1.50;;;0.93;;
1328;SDS011;658;48.820;9.354;2023-04-03T20:57:29;3.30;;;1.10;;
1328;SDS011;658;48.820;9.354;2023-04-03T21:01:30;1.00;;;0.77;;
1328;SDS011;658;48.820;9.354;2023-04-03T21:05:33;1.00;;;0.87;;
1328;SDS011;658;48.820;9.354;2023-04-03T21:23:12;0.80;;;0.80;;
1328;SDS011;658;48.820;9.354;2023-04-03T21:27:16;1.33;;;0.80;;
1328;SDS011;658;48.820;9.354;2023-04-03T21:31:21;1.13;;;0.60;;
1328;SDS011;658;48.820;9.354;2023-04-03T21:35:22;0.73;;;0.67;;
1328;SDS011;658;48.820;9.354;2023-04-03T21:39:22;1.07;;;0.97;;
1328;SDS011;658;48.820;9.354;2023-04-03T21:43:26;1.00;;;0.80;;
1328;SDS011;658;48.820;9.354;2023-04-03T21:47:30;1.63;;;1.17;;
1328;SDS011;658;48.820;9.354;2023-04-03T21:51:30;1.77;;;0.80;;
1328;SDS011;658;48.820;9.354;2023-04-03T21:55:32;0.93;;;0.80;;
1328;SDS011;658;48.820;9.354;2023-04-03T21:59:32;1.00;;;0.80;;
1328;SDS011;658;48.820;9.354;2023-04-03T22:03:37;0.80;;;0.80;;
1328;SDS011;658;48.820;9.354;2023-04-03T22:07:38;0.67;;;0.60;;
1328;SDS011;658;48.820;9.354;2023-04-03T22:11:42;0.83;;;0.83;;
1328;SDS011;658;48.820;9.354;2023-04-03T22:15:50;1.20;;;0.70;;
1328;SDS011;658;48.820;9.354;2023-04-03T22:19:51;0.93;;;0.70;;
1328;SDS011;658;48.820;9.354;2023-04-03T22:23:51;0.80;;;0.70;;
1328;SDS011;658;48.820;9.354;2023-04-03T22:27:54;0.87;;;0.87;;
1328;SDS011;658;48.820;9.354;2023-04-03T22:31:57;1.00;;;0.70;;
1328;SDS011;658;48.820;9.354;2023-04-03T22:35:58;0.70;;;0.70;;
1328;SDS011;658;48.820;9.354;2023-04-03T22:40:01;0.70;;;0.70;;
1328;SDS011;658;48.820;9.354;2023-04-03T22:44:01;2.30;;;0.70;;
1328;SDS011;658;48.820;9.354;2023-04-03T22:48:02;0.77;;;0.77;;
1328;SDS011;658;48.820;9.354;2023-04-03T22:52:06;0.77;;;0.70;;
1328;SDS011;658;48.820;9.354;2023-04-03T22:56:07;1.33;;;1.03;;
1328;SDS011;658;48.820;9.354;2023-04-03T23:00:09;1.07;;;0.97;;
1328;SDS011;658;48.820;9.354;2023-04-03T23:04:10;1.27;;;0.90;;
1328;SDS011;658;48.820;9.354;2023-04-03T23:08:11;1.57;;;0.90;;
1328;SDS011;658;48.820;9.354;2023-04-03T23:12:14;0.80;;;0.80;;
1328;SDS011;658;48.820;9.354;2023-04-03T23:16:15;1.37;;;0.90;;
1328;SDS011;658;48.820;9.354;2023-04-03T23:20:16;1.00;;;0.90;;
1328;SDS011;658;48.820;9.354;2023-04-03T23:24:17;0.60;;;0.60;;
1328;SDS011;658;48.820;9.354;2023-04-03T23:28:19;1.70;;;0.87;;
1328;SDS011;658;48.820;9.354;2023-04-03T23:32:23;0.70;;;0.70;;
1328;SDS011;658;48.820;9.354;2023-04-03T23:36:23;0.80;;;0.80;;
1328;SDS011;658;48.820;9.354;2023-04-03T23:40:24;0.70;;;0.70;;
1328;SDS011;658;48.820;9.354;2023-04-03T23:44:24;0.70;;;0.70;;
1328;SDS011;658;48.820;9.354;2023-04-03T23:48:25;0.80;;;0.70;;
1328;SDS011;658;48.820;9.354;2023-04-03T23:52:28;0.60;;;0.60;;
1328;SDS011;658;48.820;9.354;2023-04-03T23:56:29;0.73;;;0.73;;
